Terminal Aerodrome Forecast
Issued by NWS

Home | Current Version | Previous Version | Text Only | Print | Product List | Glossary On
Versions: 1 2 3 4 5 6 7 8 9 10 11 12 13
516
FTUS44 KTSA 240520
TAFMLC
TAF
KMLC 240520Z 2406/2506 14003KT P6SM BKN050 OVC060
     FM240900 16008KT P6SM BKN030
     FM241200 17008KT P6SM VCSH OVC015
     FM241500 17008KT P6SM VCTS OVC015CB PROB30 2416/2422 5SM -TSRA
      OVC008CB
     FM242200 17010KT P6SM BKN050=

USA.gov is the U.S. government's official web portal to all federal, state and local government web resources and services.